createdAt,value
2018-06-17T00:00:27.667Z,99664.77
2018-06-17T00:04:31.149Z,99664.10
2018-06-17T00:08:34.577Z,99668.19
2018-06-17T00:12:38.000Z,99668.38
2018-06-17T00:16:41.430Z,99678.44
2018-06-17T00:20:44.841Z,99674.70
2018-06-17T00:24:48.288Z,99676.17
2018-06-17T00:28:51.734Z,99677.70
2018-06-17T00:32:55.156Z,99679.17
2018-06-17T00:36:58.577Z,99670.41
2018-06-17T00:41:02.050Z,99677.33
2018-06-17T00:45:05.635Z,99681.79
2018-06-17T00:49:09.057Z,99681.79
2018-06-17T00:53:12.467Z,99678.73
2018-06-17T00:57:27.261Z,99673.17
2018-06-17T01:01:30.684Z,99671.91
2018-06-17T01:05:34.125Z,99669.77
2018-06-17T01:09:37.550Z,99663.52
2018-06-17T01:13:40.989Z,99659.63
2018-06-17T01:17:44.407Z,99658.37
2018-06-17T01:21:47.852Z,99654.07
2018-06-17T01:25:51.275Z,99656.48
2018-06-17T01:29:54.704Z,99652.13
2018-06-17T01:33:58.123Z,99659.80
2018-06-17T01:38:01.618Z,99649.63
2018-06-17T01:42:05.059Z,99656.77
2018-06-17T01:46:08.532Z,99654.09
2018-06-17T01:50:11.962Z,99651.95
2018-06-17T01:54:15.401Z,99651.22
2018-06-17T01:58:18.872Z,99649.55
2018-06-17T02:02:22.298Z,99650.06
2018-06-17T02:06:31.098Z,99654.97
2018-06-17T02:11:37.597Z,99647.06
2018-06-17T02:15:40.989Z,99650.94
2018-06-17T02:19:44.425Z,99650.20
2018-06-17T02:23:47.871Z,99650.25
2018-06-17T02:27:51.311Z,99649.45
2018-06-17T02:31:54.753Z,99654.51
2018-06-17T02:35:58.219Z,99649.81
2018-06-17T02:40:01.633Z,99654.48
2018-06-17T02:44:05.102Z,99648.92
2018-06-17T02:48:13.696Z,99655.73
2018-06-17T02:52:22.522Z,99654.48
2018-06-17T02:56:25.964Z,99652.37
2018-06-17T03:00:29.397Z,99657.39
2018-06-17T03:04:32.827Z,99659.27
2018-06-17T03:08:42.726Z,99661.45
2018-06-17T03:12:46.163Z,99667.67
2018-06-17T03:16:49.594Z,99667.17
2018-06-17T03:20:52.998Z,99659.27
2018-06-17T03:25:01.596Z,99664.61
2018-06-17T03:29:10.132Z,99659.27
2018-06-17T03:34:17.528Z,99666.48
2018-06-17T03:38:20.956Z,99665.64
2018-06-17T03:42:24.402Z,99665.25
2018-06-17T03:46:27.870Z,99670.12
2018-06-17T03:50:31.273Z,99669.33
2018-06-17T03:54:34.694Z,99671.94
2018-06-17T03:58:38.152Z,99675.84
2018-06-17T04:02:42.425Z,99676.23
2018-06-17T04:06:45.854Z,99668.50
2018-06-17T04:10:49.315Z,99672.78
2018-06-17T04:14:52.752Z,99676.27
2018-06-17T04:18:56.153Z,99683.22
2018-06-17T04:22:59.590Z,99683.05
2018-06-17T04:27:03.034Z,99680.73
2018-06-17T04:31:06.551Z,99684.59
2018-06-17T04:35:10.005Z,99682.28
2018-06-17T04:39:13.460Z,99691.47
2018-06-17T04:43:16.908Z,99689.06
2018-06-17T04:47:20.355Z,99698.63
2018-06-17T04:51:23.842Z,99705.53
2018-06-17T04:55:27.271Z,99701.22
2018-06-17T04:59:30.700Z,99712.39
2018-06-17T05:03:34.134Z,99707.50
2018-06-17T05:07:37.570Z,99715.88
2018-06-17T05:11:41.055Z,99721.91
2018-06-17T05:15:44.474Z,99720.70
2018-06-17T05:19:47.936Z,99719.84
2018-06-17T05:23:51.399Z,99721.97
2018-06-17T05:27:54.831Z,99725.47
2018-06-17T05:31:58.402Z,99715.80
2018-06-17T05:36:01.871Z,99727.89
2018-06-17T05:40:05.316Z,99726.22
2018-06-17T05:44:08.780Z,99726.31
2018-06-17T05:48:12.230Z,99727.39
2018-06-17T05:52:15.693Z,99728.78
2018-06-17T05:56:20.098Z,99736.39
2018-06-17T06:00:23.522Z,99731.03
2018-06-17T06:04:26.940Z,99728.97
2018-06-17T06:08:30.756Z,99725.05
2018-06-17T06:12:34.189Z,99726.95
2018-06-17T06:16:37.612Z,99733.25
2018-06-17T06:20:41.084Z,99736.38
2018-06-17T06:24:44.572Z,99737.80
2018-06-17T06:28:47.971Z,99735.06
2018-06-17T06:32:51.405Z,99736.92
2018-06-17T06:36:54.836Z,99731.98
2018-06-17T06:40:58.294Z,99742.20
2018-06-17T06:45:01.724Z,99740.67
2018-06-17T06:49:05.179Z,99736.07
2018-06-17T06:53:08.631Z,99744.69
2018-06-17T06:57:12.039Z,99744.01
2018-06-17T07:01:25.407Z,99742.44
2018-06-17T07:05:40.392Z,99742.07
2018-06-17T07:09:56.900Z,99743.98
2018-06-17T07:14:00.331Z,99744.05
2018-06-17T07:18:15.152Z,99753.05
2018-06-17T07:22:18.584Z,99751.10
2018-06-17T07:26:39.626Z,99756.20
2018-06-17T07:30:43.082Z,99748.73
2018-06-17T07:34:46.830Z,99753.20
2018-06-17T07:38:50.265Z,99740.64
2018-06-17T07:42:53.750Z,99749.48
2018-06-17T07:46:57.175Z,99746.09
2018-06-17T07:51:11.853Z,99749.78
2018-06-17T07:55:15.314Z,99756.14
2018-06-17T07:59:18.766Z,99755.80
2018-06-17T08:03:22.202Z,99749.16
2018-06-17T08:07:25.659Z,99752.90
2018-06-17T08:11:29.124Z,99738.26
2018-06-17T08:15:32.574Z,99738.56
2018-06-17T08:19:36.150Z,99738.38
2018-06-17T08:23:39.569Z,99730.13
2018-06-17T08:27:43.055Z,99719.66
2018-06-17T08:31:46.465Z,99720.95
2018-06-17T08:35:49.883Z,99723.55
2018-06-17T08:39:53.343Z,99717.56
2018-06-17T08:43:56.779Z,99719.87
2018-06-17T08:48:00.187Z,99718.34
2018-06-17T08:52:03.649Z,99726.33
2018-06-17T08:56:07.085Z,99716.02
2018-06-17T09:00:10.564Z,99714.88
2018-06-17T09:04:14.001Z,99709.73
2018-06-17T09:08:17.430Z,99703.65
2018-06-17T09:12:20.878Z,99706.42
2018-06-17T09:16:24.909Z,99706.66
2018-06-17T09:20:28.363Z,99703.53
2018-06-17T09:24:31.771Z,99699.64
2018-06-17T09:28:35.212Z,99681.70
2018-06-17T09:32:38.659Z,99687.03
2018-06-17T09:36:42.084Z,99687.08
2018-06-17T09:40:45.514Z,99681.77
2018-06-17T09:44:48.939Z,99672.85
2018-06-17T09:48:52.420Z,99676.80
2018-06-17T09:52:55.822Z,99672.27
2018-06-17T09:56:59.287Z,99671.50
2018-06-17T10:01:02.734Z,99669.17
2018-06-17T10:05:06.239Z,99655.42
2018-06-17T10:09:10.510Z,99656.70
2018-06-17T10:13:14.537Z,99659.27
2018-06-17T10:17:17.946Z,99658.05
2018-06-17T10:21:21.398Z,99651.27
2018-06-17T10:25:24.900Z,99654.63
2018-06-17T10:29:28.361Z,99648.20
2018-06-17T10:33:32.097Z,99646.11
2018-06-17T10:37:35.549Z,99645.87
2018-06-17T10:41:38.974Z,99641.28
2018-06-17T10:45:42.766Z,99643.38
2018-06-17T10:49:46.188Z,99634.52
2018-06-17T10:53:49.612Z,99635.66
2018-06-17T10:57:53.045Z,99637.98
2018-06-17T11:01:56.508Z,99642.18
2018-06-17T11:05:59.951Z,99624.79
2018-06-17T11:10:03.853Z,99639.81
2018-06-17T11:14:07.287Z,99633.75
2018-06-17T11:18:10.731Z,99638.05
2018-06-17T11:22:14.161Z,99635.77
2018-06-17T11:26:17.601Z,99634.64
2018-06-17T11:30:21.384Z,99628.02
2018-06-17T11:34:24.802Z,99636.19
2018-06-17T11:38:28.497Z,99638.91
2018-06-17T11:42:31.947Z,99640.38
2018-06-17T11:46:36.288Z,99639.03
2018-06-17T11:50:39.716Z,99637.82
2018-06-17T11:54:43.168Z,99629.94
2018-06-17T11:58:46.605Z,99633.03
2018-06-17T12:02:50.043Z,99631.42
2018-06-17T12:06:53.559Z,99629.44
2018-06-17T12:10:57.060Z,99629.44
2018-06-17T12:15:00.497Z,99628.70
2018-06-17T12:19:04.355Z,99640.30
2018-06-17T12:23:07.775Z,99643.28
2018-06-17T12:27:11.197Z,99640.81
2018-06-17T12:31:14.622Z,99639.19
2018-06-17T12:35:18.079Z,99642.64
2018-06-17T12:39:21.521Z,99636.48
2018-06-17T12:43:24.927Z,99645.74
2018-06-17T12:47:28.383Z,99638.08
2018-06-17T12:51:31.839Z,99641.91
2018-06-17T12:55:35.259Z,99628.59
2018-06-17T12:59:38.667Z,99628.09
2018-06-17T13:03:42.069Z,99628.20
2018-06-17T13:07:45.879Z,99631.89
2018-06-17T13:11:49.338Z,99633.09
2018-06-17T13:15:52.798Z,99636.27
2018-06-17T13:19:56.204Z,99629.72
2018-06-17T13:23:59.727Z,99629.83
2018-06-17T13:28:03.153Z,99625.10
2018-06-17T13:32:06.589Z,99623.11
2018-06-17T13:36:10.037Z,99623.33
2018-06-17T13:40:13.501Z,99623.81
2018-06-17T13:44:16.984Z,99618.34
2018-06-17T13:48:20.401Z,99613.66
2018-06-17T13:52:23.891Z,99614.94
2018-06-17T13:56:27.315Z,99606.19
2018-06-17T14:00:30.721Z,99615.38
2018-06-17T14:04:34.164Z,99620.66
2018-06-17T14:08:37.600Z,99619.36
2018-06-17T14:12:41.030Z,99618.84
2018-06-17T14:16:44.470Z,99610.19
2018-06-17T14:20:47.916Z,99613.78
2018-06-17T14:24:51.330Z,99614.03
2018-06-17T14:28:54.765Z,99612.31
2018-06-17T14:32:58.220Z,99608.61
2018-06-17T14:37:01.660Z,99604.55
2018-06-17T14:41:10.400Z,99602.84
2018-06-17T14:45:19.074Z,99602.58
2018-06-17T14:49:27.582Z,99603.94
2018-06-17T14:53:30.974Z,99607.47
2018-06-17T14:57:34.396Z,99596.64
2018-06-17T15:01:37.896Z,99593.83
2018-06-17T15:05:41.334Z,99595.67
2018-06-17T15:09:44.776Z,99592.36
2018-06-17T15:13:48.271Z,99594.84
2018-06-17T15:17:51.730Z,99590.28
2018-06-17T15:21:55.171Z,99591.00
2018-06-17T15:25:58.590Z,99589.13
2018-06-17T15:30:01.975Z,99589.37
2018-06-17T15:34:10.639Z,99589.95
2018-06-17T15:38:19.380Z,99582.66
2018-06-17T15:42:22.798Z,99583.16
2018-06-17T15:46:26.873Z,99577.50
2018-06-17T15:50:30.352Z,99585.12
2018-06-17T15:54:33.749Z,99577.00
2018-06-17T15:58:37.170Z,99579.43
2018-06-17T16:02:40.606Z,99583.88
2018-06-17T16:06:44.019Z,99581.17
2018-06-17T16:10:47.445Z,99582.30
2018-06-17T16:14:56.232Z,99584.38
2018-06-17T16:19:04.997Z,99589.98
2018-06-17T16:23:08.426Z,99584.89
2018-06-17T16:27:11.858Z,99582.30
2018-06-17T16:31:15.315Z,99581.72
2018-06-17T16:35:18.747Z,99589.70
2018-06-17T16:39:22.152Z,99587.38
2018-06-17T16:43:25.612Z,99579.13
2018-06-17T16:47:29.047Z,99574.67
2018-06-17T16:51:37.800Z,99579.98
2018-06-17T16:55:46.371Z,99572.93
2018-06-17T17:00:09.721Z,99580.41
2018-06-17T17:04:13.214Z,99579.42
2018-06-17T17:08:16.638Z,99584.83
2018-06-17T17:12:20.073Z,99591.21
2018-06-17T17:16:23.501Z,99593.39
2018-06-17T17:20:26.985Z,99596.06
2018-06-17T17:24:30.413Z,99588.66
2018-06-17T17:28:33.858Z,99596.23
2018-06-17T17:32:42.714Z,99591.04
2018-06-17T17:36:51.431Z,99597.66
2018-06-17T17:40:57.398Z,99598.27
2018-06-17T17:45:05.363Z,99596.73
2018-06-17T17:49:08.850Z,99595.13
2018-06-17T17:53:12.257Z,99595.45
2018-06-17T17:57:15.965Z,99606.87
2018-06-17T18:01:19.413Z,99611.53
2018-06-17T18:05:22.862Z,99612.09
2018-06-17T18:09:26.316Z,99610.20
2018-06-17T18:13:29.739Z,99612.12
2018-06-17T18:17:33.151Z,99604.25
2018-06-17T18:21:36.581Z,99614.98
2018-06-17T18:25:45.344Z,99614.94
2018-06-17T18:29:54.148Z,99619.44
2018-06-17T18:34:02.959Z,99619.09
2018-06-17T18:38:06.383Z,99617.69
2018-06-17T18:42:09.801Z,99620.30
2018-06-17T18:46:14.091Z,99615.70
2018-06-17T18:50:17.523Z,99626.74
2018-06-17T18:54:20.961Z,99631.76
2018-06-17T18:58:24.590Z,99638.05
2018-06-17T19:02:28.055Z,99644.95
2018-06-17T19:06:31.520Z,99653.17
2018-06-17T19:10:40.323Z,99652.71
2018-06-17T19:14:48.970Z,99650.80
2018-06-17T19:18:52.416Z,99653.52
2018-06-17T19:22:55.864Z,99660.47
2018-06-17T19:26:59.281Z,99655.84
2018-06-17T19:31:02.698Z,99664.36
2018-06-17T19:35:06.247Z,99670.54
2018-06-17T19:39:10.747Z,99674.44
2018-06-17T19:43:14.175Z,99677.45
2018-06-17T19:47:17.646Z,99691.54
2018-06-17T19:51:26.190Z,99687.59
2018-06-17T19:55:34.814Z,99691.15
2018-06-17T19:59:43.359Z,99701.77
2018-06-17T20:03:46.818Z,99698.95
2018-06-17T20:07:50.290Z,99692.97
2018-06-17T20:11:53.730Z,99699.04
2018-06-17T20:15:57.208Z,99701.25
2018-06-17T20:20:00.651Z,99706.45
2018-06-17T20:24:04.071Z,99709.24
2018-06-17T20:28:07.506Z,99707.80
2018-06-17T20:32:16.167Z,99708.16
2018-06-17T20:37:26.565Z,99702.98
2018-06-17T20:41:35.232Z,99702.91
2018-06-17T20:45:38.706Z,99707.44
2018-06-17T20:49:42.131Z,99710.04
2018-06-17T20:53:45.550Z,99715.61
2018-06-17T20:57:49.091Z,99713.48
2018-06-17T21:01:52.541Z,99716.08
2018-06-17T21:05:55.975Z,99717.61
2018-06-17T21:09:59.402Z,99728.19
2018-06-17T21:14:02.818Z,99730.97
2018-06-17T21:18:06.376Z,99725.76
2018-06-17T21:22:15.122Z,99721.98
2018-06-17T21:26:23.667Z,99732.56
2018-06-17T21:30:27.132Z,99742.66
2018-06-17T21:34:30.543Z,99742.34
2018-06-17T21:38:33.974Z,99732.80
2018-06-17T21:42:37.393Z,99732.68
2018-06-17T21:46:40.801Z,99730.41
2018-06-17T21:50:44.272Z,99728.51
2018-06-17T21:54:47.714Z,99727.13
2018-06-17T21:58:51.124Z,99733.05
2018-06-17T22:02:54.542Z,99727.05
2018-06-17T22:06:58.053Z,99736.59
2018-06-17T22:11:06.714Z,99734.80
2018-06-17T22:15:15.178Z,99739.20
2018-06-17T22:19:18.596Z,99738.74
2018-06-17T22:23:22.038Z,99748.11
2018-06-17T22:27:25.476Z,99744.92
2018-06-17T22:31:28.909Z,99751.11
2018-06-17T22:35:32.342Z,99743.88
2018-06-17T22:39:36.026Z,99748.22
2018-06-17T22:43:39.467Z,99748.64
2018-06-17T22:47:48.324Z,99750.78
2018-06-17T22:51:51.753Z,99759.56
2018-06-17T22:55:55.191Z,99765.95
2018-06-17T23:00:04.026Z,99761.77
2018-06-17T23:04:12.882Z,99759.01
2018-06-17T23:08:21.716Z,99758.52
2018-06-17T23:12:25.153Z,99761.92
2018-06-17T23:16:28.589Z,99766.25
2018-06-17T23:20:32.067Z,99770.17
2018-06-17T23:24:35.477Z,99770.02
2018-06-17T23:28:38.911Z,99761.38
2018-06-17T23:32:42.366Z,99762.91
2018-06-17T23:36:45.800Z,99766.11
2018-06-17T23:40:49.223Z,99769.98
2018-06-17T23:44:52.675Z,99775.19
2018-06-17T23:49:01.300Z,99773.06
2018-06-17T23:53:10.076Z,99772.79
2018-06-17T23:57:13.558Z,99776.58
